Terminal Aerodrome Forecast
Issued by NWS Greer, SC

Current Version | Previous Version | Text Only | Print | Product List | Glossary On
Versions: 1 2 3 4 5 6 7 8 9 10 11 12 13 14 15 16 17 18 19 20
000
FTUS42 KGSP 202339
TAFCLT
TAF
KCLT 202339Z 2100/2124 12003KT P6SM FEW070 FEW250
     FM211100 VRB02KT 6SM BR FEW250
     FM211300 VRB02KT P6SM FEW250
     FM211700 13005KT P6SM SCT050=

USA.gov is the U.S. government's official web portal to all federal, state and local government web resources and services.